<?xml version="1.0" encoding="utf-8"?>
<gpx xmlns:xsi="http://www.w3.org/2001/XMLSchema-instance" xmlns:xsd="http://www.w3.org/2001/XMLSchema" version="1.1" creator="Shapelink.com" xmlns="http://www.topografix.com/GPX/1/1" xmlns:gpxtpx="http://www.garmin.com/xmlschemas/TrackPointExtension/v1">
  <metadata>
    <name>Övrigt 3.83 km, 2019-06-01</name>
    <desc></desc>
    <author><name>Marian Moron</name></author> 
    <time>2019-06-01T15:43:14Z</time>
  </metadata>
  <trk>
    <name>Övrigt 3.83 km, 2019-06-01</name>
    <trkseg>
      <trkpt lat="51.451609689874" lon="3.554615095094">
        <ele>0</ele>
        <time>2019-06-01T15:43:14Z</time>
      </trkpt>
      <trkpt lat="51.451897272863" lon="3.55463303236">
        <ele>0</ele>
        <time>2019-06-01T15:44:35Z</time>
      </trkpt>
      <trkpt lat="51.451891154076" lon="3.554667230512">
        <ele>0</ele>
        <time>2019-06-01T15:46:37Z</time>
      </trkpt>
      <trkpt lat="51.451858548485" lon="3.554625823926">
        <ele>0</ele>
        <time>2019-06-01T15:46:41Z</time>
      </trkpt>
      <trkpt lat="51.451907917876" lon="3.554581986589">
        <ele>0</ele>
        <time>2019-06-01T15:47:28Z</time>
      </trkpt>
      <trkpt lat="51.452176222495" lon="3.554747612933">
        <ele>0</ele>
        <time>2019-06-01T15:47:56Z</time>
      </trkpt>
      <trkpt lat="51.452392224058" lon="3.554913490734">
        <ele>0</ele>
        <time>2019-06-01T15:48:16Z</time>
      </trkpt>
      <trkpt lat="51.452395744456" lon="3.554932517647">
        <ele>0</ele>
        <time>2019-06-01T15:49:35Z</time>
      </trkpt>
      <trkpt lat="51.452381076131" lon="3.554928410516">
        <ele>0</ele>
        <time>2019-06-01T15:49:36Z</time>
      </trkpt>
      <trkpt lat="51.451961562036" lon="3.554686425063">
        <ele>0</ele>
        <time>2019-06-01T15:50:13Z</time>
      </trkpt>
      <trkpt lat="51.451684288784" lon="3.55457435906">
        <ele>0</ele>
        <time>2019-06-01T15:50:35Z</time>
      </trkpt>
      <trkpt lat="51.451653443392" lon="3.554583327693">
        <ele>0</ele>
        <time>2019-06-01T15:50:39Z</time>
      </trkpt>
      <trkpt lat="51.451542802312" lon="3.554702518311">
        <ele>0</ele>
        <time>2019-06-01T15:50:59Z</time>
      </trkpt>
      <trkpt lat="51.450884906981" lon="3.558523575064">
        <ele>4.4</ele>
        <time>2019-06-01T15:58:02Z</time>
      </trkpt>
      <trkpt lat="51.450637473293" lon="3.558676544739">
        <ele>4.6</ele>
        <time>2019-06-01T15:58:05Z</time>
      </trkpt>
      <trkpt lat="51.450626660642" lon="3.558606974969">
        <ele>4.2</ele>
        <time>2019-06-01T15:58:07Z</time>
      </trkpt>
      <trkpt lat="51.450622134416" lon="3.558437073856">
        <ele>3.2</ele>
        <time>2019-06-01T15:58:14Z</time>
      </trkpt>
      <trkpt lat="51.451752349812" lon="3.554464220894">
        <ele>9.6</ele>
        <time>2019-06-01T16:26:07Z</time>
      </trkpt>
      <trkpt lat="51.451730892148" lon="3.554384760482">
        <ele>5</ele>
        <time>2019-06-01T16:26:39Z</time>
      </trkpt>
      <trkpt lat="51.451743213541" lon="3.554467992749">
        <ele>4.8</ele>
        <time>2019-06-01T16:26:53Z</time>
      </trkpt>
      <trkpt lat="51.451881514891" lon="3.554597325466">
        <ele>5.8</ele>
        <time>2019-06-01T16:27:12Z</time>
      </trkpt>
      <trkpt lat="51.452303962651" lon="3.55487862203">
        <ele>8.6</ele>
        <time>2019-06-01T16:27:48Z</time>
      </trkpt>
      <trkpt lat="51.45231494294" lon="3.554888512672">
        <ele>8.6</ele>
        <time>2019-06-01T16:27:49Z</time>
      </trkpt>
      <trkpt lat="51.452392643153" lon="3.554899828237">
        <ele>10.2</ele>
        <time>2019-06-01T16:28:00Z</time>
      </trkpt>
      <trkpt lat="51.452341597382" lon="3.554909048327">
        <ele>9.8</ele>
        <time>2019-06-01T16:28:43Z</time>
      </trkpt>
      <trkpt lat="51.451931303377" lon="3.554627584125">
        <ele>10.2</ele>
        <time>2019-06-01T16:29:19Z</time>
      </trkpt>
      <trkpt lat="51.451728545216" lon="3.554468579482">
        <ele>9.2</ele>
        <time>2019-06-01T16:29:35Z</time>
      </trkpt>
      <trkpt lat="51.451725108637" lon="3.554475368821">
        <ele>8.4</ele>
        <time>2019-06-01T16:29:50Z</time>
      </trkpt>
      <trkpt lat="51.451666770613" lon="3.554439578108">
        <ele>7.6</ele>
        <time>2019-06-01T16:30:16Z</time>
      </trkpt>
      <trkpt lat="51.451669285183" lon="3.554485175644">
        <ele>7.6</ele>
        <time>2019-06-01T16:30:19Z</time>
      </trkpt>
      <trkpt lat="51.451734747822" lon="3.554548626627">
        <ele>7.4</ele>
        <time>2019-06-01T16:30:34Z</time>
      </trkpt>
      <trkpt lat="51.451289417475" lon="3.554608473393">
        <ele>6.4</ele>
        <time>2019-06-01T16:31:13Z</time>
      </trkpt>
      <trkpt lat="51.4511615935" lon="3.554661447001">
        <ele>4.2</ele>
        <time>2019-06-01T16:31:33Z</time>
      </trkpt>
      <trkpt lat="51.451069979333" lon="3.554664632123">
        <ele>1.4</ele>
        <time>2019-06-01T16:31:45Z</time>
      </trkpt>
      <trkpt lat="51.450687010322" lon="3.554919441883">
        <ele>0.4</ele>
        <time>2019-06-01T16:32:40Z</time>
      </trkpt>
      <trkpt lat="51.450710814918" lon="3.555280282678">
        <ele>0</ele>
        <time>2019-06-01T16:33:09Z</time>
      </trkpt>
      <trkpt lat="51.450650632876" lon="3.555847234394">
        <ele>6.8</ele>
        <time>2019-06-01T16:34:19Z</time>
      </trkpt>
      <trkpt lat="51.450628420841" lon="3.556062900681">
        <ele>8.8</ele>
        <time>2019-06-01T16:34:40Z</time>
      </trkpt>
      <trkpt lat="51.450591456662" lon="3.556257276942">
        <ele>7.2</ele>
        <time>2019-06-01T16:34:53Z</time>
      </trkpt>
      <trkpt lat="51.450546697316" lon="3.556285440126">
        <ele>7</ele>
        <time>2019-06-01T16:35:00Z</time>
      </trkpt>
      <trkpt lat="51.450520294331" lon="3.556225509541">
        <ele>6.2</ele>
        <time>2019-06-01T16:35:09Z</time>
      </trkpt>
      <trkpt lat="51.450282835104" lon="3.555738269694">
        <ele>5.2</ele>
        <time>2019-06-01T16:36:16Z</time>
      </trkpt>
      <trkpt lat="51.450302784026" lon="3.555881264908">
        <ele>4.4</ele>
        <time>2019-06-01T16:36:29Z</time>
      </trkpt>
      <trkpt lat="51.450324996061" lon="3.556039096085">
        <ele>6</ele>
        <time>2019-06-01T16:36:45Z</time>
      </trkpt>
      <trkpt lat="51.450325666613" lon="3.556197849271">
        <ele>5</ele>
        <time>2019-06-01T16:36:59Z</time>
      </trkpt>
      <trkpt lat="51.450210080212" lon="3.556368001841">
        <ele>2.6</ele>
        <time>2019-06-01T16:38:13Z</time>
      </trkpt>
      <trkpt lat="51.450214941714" lon="3.556370432592">
        <ele>2.4</ele>
        <time>2019-06-01T16:38:21Z</time>
      </trkpt>
      <trkpt lat="51.450189041643" lon="3.556388621315">
        <ele>1.6</ele>
        <time>2019-06-01T16:38:25Z</time>
      </trkpt>
      <trkpt lat="51.450090135223" lon="3.55630270684">
        <ele>1.4</ele>
        <time>2019-06-01T16:38:45Z</time>
      </trkpt>
      <trkpt lat="51.450070773034" lon="3.556297174786">
        <ele>2.4</ele>
        <time>2019-06-01T16:39:24Z</time>
      </trkpt>
      <trkpt lat="51.450029869362" lon="3.556285523945">
        <ele>2.6</ele>
        <time>2019-06-01T16:39:30Z</time>
      </trkpt>
      <trkpt lat="51.449955857185" lon="3.556224587532">
        <ele>1.6</ele>
        <time>2019-06-01T16:39:44Z</time>
      </trkpt>
      <trkpt lat="51.449911936029" lon="3.556198268366">
        <ele>1.6</ele>
        <time>2019-06-01T16:39:57Z</time>
      </trkpt>
      <trkpt lat="51.449881509732" lon="3.556188293905">
        <ele>0.8</ele>
        <time>2019-06-01T16:40:05Z</time>
      </trkpt>
      <trkpt lat="51.449880084809" lon="3.556188713">
        <ele>1.2</ele>
        <time>2019-06-01T16:40:28Z</time>
      </trkpt>
      <trkpt lat="51.449872038185" lon="3.556195669977">
        <ele>1</ele>
        <time>2019-06-01T16:41:03Z</time>
      </trkpt>
      <trkpt lat="51.449853514186" lon="3.556175637236">
        <ele>0</ele>
        <time>2019-06-01T16:41:06Z</time>
      </trkpt>
      <trkpt lat="51.449794002696" lon="3.55616775825">
        <ele>0</ele>
        <time>2019-06-01T16:41:16Z</time>
      </trkpt>
      <trkpt lat="51.449640530107" lon="3.556124004732">
        <ele>0</ele>
        <time>2019-06-01T16:41:35Z</time>
      </trkpt>
      <trkpt lat="51.449540869316" lon="3.556062816862">
        <ele>0</ele>
        <time>2019-06-01T16:41:46Z</time>
      </trkpt>
      <trkpt lat="51.449502480214" lon="3.556021661733">
        <ele>0</ele>
        <time>2019-06-01T16:41:50Z</time>
      </trkpt>
      <trkpt lat="51.449449925701" lon="3.555982937355">
        <ele>0</ele>
        <time>2019-06-01T16:41:55Z</time>
      </trkpt>
      <trkpt lat="51.449410363133" lon="3.555969526315">
        <ele>0</ele>
        <time>2019-06-01T16:42:00Z</time>
      </trkpt>
      <trkpt lat="51.449163013264" lon="3.555817981563">
        <ele>0</ele>
        <time>2019-06-01T16:42:25Z</time>
      </trkpt>
      <trkpt lat="51.449061005541" lon="3.555683954982">
        <ele>0</ele>
        <time>2019-06-01T16:44:34Z</time>
      </trkpt>
      <trkpt lat="51.449098640272" lon="3.555689738493">
        <ele>0</ele>
        <time>2019-06-01T16:44:38Z</time>
      </trkpt>
      <trkpt lat="51.449494768866" lon="3.55601604586">
        <ele>0</ele>
        <time>2019-06-01T16:45:46Z</time>
      </trkpt>
      <trkpt lat="51.449660562848" lon="3.556189718828">
        <ele>0</ele>
        <time>2019-06-01T16:46:27Z</time>
      </trkpt>
      <trkpt lat="51.449733653016" lon="3.556201704945">
        <ele>0</ele>
        <time>2019-06-01T16:46:35Z</time>
      </trkpt>
      <trkpt lat="51.449761648562" lon="3.556187455715">
        <ele>0</ele>
        <time>2019-06-01T16:46:39Z</time>
      </trkpt>
      <trkpt lat="51.44966626254" lon="3.55614093617">
        <ele>0</ele>
        <time>2019-06-01T16:48:30Z</time>
      </trkpt>
      <trkpt lat="51.449457134135" lon="3.555981931527">
        <ele>0</ele>
        <time>2019-06-01T16:49:01Z</time>
      </trkpt>
      <trkpt lat="51.449361664294" lon="3.555896855242">
        <ele>0</ele>
        <time>2019-06-01T16:49:13Z</time>
      </trkpt>
      <trkpt lat="51.449149769862" lon="3.555701137877">
        <ele>0</ele>
        <time>2019-06-01T16:49:37Z</time>
      </trkpt>
      <trkpt lat="51.449030746882" lon="3.555585551476">
        <ele>0</ele>
        <time>2019-06-01T16:49:51Z</time>
      </trkpt>
      <trkpt lat="51.44896972665" lon="3.555520340294">
        <ele>0</ele>
        <time>2019-06-01T16:50:21Z</time>
      </trkpt>
      <trkpt lat="51.448986322812" lon="3.555478430794">
        <ele>0</ele>
        <time>2019-06-01T16:50:25Z</time>
      </trkpt>
      <trkpt lat="51.449029573416" lon="3.555396874907">
        <ele>0</ele>
        <time>2019-06-01T16:50:49Z</time>
      </trkpt>
      <trkpt lat="51.449043655008" lon="3.555352031742">
        <ele>0</ele>
        <time>2019-06-01T16:50:53Z</time>
      </trkpt>
      <trkpt lat="51.449080032454" lon="3.555211299641">
        <ele>0</ele>
        <time>2019-06-01T16:51:07Z</time>
      </trkpt>
      <trkpt lat="51.449096460978" lon="3.555149608857">
        <ele>0</ele>
        <time>2019-06-01T16:51:13Z</time>
      </trkpt>
      <trkpt lat="51.449107608905" lon="3.555091270833">
        <ele>0</ele>
        <time>2019-06-01T16:51:18Z</time>
      </trkpt>
      <trkpt lat="51.449116493719" lon="3.555034860646">
        <ele>0</ele>
        <time>2019-06-01T16:51:22Z</time>
      </trkpt>
      <trkpt lat="51.449125797628" lon="3.554915334752">
        <ele>0</ele>
        <time>2019-06-01T16:51:31Z</time>
      </trkpt>
      <trkpt lat="51.449163013264" lon="3.55480318493">
        <ele>0</ele>
        <time>2019-06-01T16:51:40Z</time>
      </trkpt>
      <trkpt lat="51.449197965787" lon="3.554744595449">
        <ele>0</ele>
        <time>2019-06-01T16:51:45Z</time>
      </trkpt>
      <trkpt lat="51.449216825062" lon="3.554702769768">
        <ele>0</ele>
        <time>2019-06-01T16:51:49Z</time>
      </trkpt>
      <trkpt lat="51.449243060409" lon="3.554569413739">
        <ele>0</ele>
        <time>2019-06-01T16:51:59Z</time>
      </trkpt>
      <trkpt lat="51.449246580807" lon="3.554506800946">
        <ele>0</ele>
        <time>2019-06-01T16:52:04Z</time>
      </trkpt>
      <trkpt lat="51.449238953278" lon="3.554389873441">
        <ele>0</ele>
        <time>2019-06-01T16:52:12Z</time>
      </trkpt>
      <trkpt lat="51.449221854202" lon="3.554344611181">
        <ele>0</ele>
        <time>2019-06-01T16:52:16Z</time>
      </trkpt>
      <trkpt lat="51.449166533662" lon="3.554181331769">
        <ele>0</ele>
        <time>2019-06-01T16:52:29Z</time>
      </trkpt>
      <trkpt lat="51.449131078225" lon="3.554132130016">
        <ele>0</ele>
        <time>2019-06-01T16:52:34Z</time>
      </trkpt>
      <trkpt lat="51.449056814591" lon="3.554023165316">
        <ele>0</ele>
        <time>2019-06-01T16:53:18Z</time>
      </trkpt>
      <trkpt lat="51.449074919495" lon="3.554152498033">
        <ele>0</ele>
        <time>2019-06-01T16:53:31Z</time>
      </trkpt>
      <trkpt lat="51.449119595022" lon="3.554221732527">
        <ele>0</ele>
        <time>2019-06-01T16:53:39Z</time>
      </trkpt>
      <trkpt lat="51.449149266948" lon="3.554324494621">
        <ele>0</ele>
        <time>2019-06-01T16:53:48Z</time>
      </trkpt>
      <trkpt lat="51.449173323001" lon="3.554407223974">
        <ele>0</ele>
        <time>2019-06-01T16:53:54Z</time>
      </trkpt>
      <trkpt lat="51.449235851975" lon="3.554707715089">
        <ele>0</ele>
        <time>2019-06-01T16:54:19Z</time>
      </trkpt>
      <trkpt lat="51.449215064863" lon="3.554752642073">
        <ele>0</ele>
        <time>2019-06-01T16:54:23Z</time>
      </trkpt>
      <trkpt lat="51.449188242783" lon="3.554864624257">
        <ele>0</ele>
        <time>2019-06-01T16:54:33Z</time>
      </trkpt>
      <trkpt lat="51.449173490639" lon="3.554905695567">
        <ele>0</ele>
        <time>2019-06-01T16:54:37Z</time>
      </trkpt>
      <trkpt lat="51.449162258893" lon="3.554936038045">
        <ele>0</ele>
        <time>2019-06-01T16:54:40Z</time>
      </trkpt>
      <trkpt lat="51.449144656903" lon="3.554984988341">
        <ele>0</ele>
        <time>2019-06-01T16:54:45Z</time>
      </trkpt>
      <trkpt lat="51.449162175074" lon="3.555264776163">
        <ele>0</ele>
        <time>2019-06-01T16:55:14Z</time>
      </trkpt>
      <trkpt lat="51.449191092629" lon="3.555353708122">
        <ele>0</ele>
        <time>2019-06-01T16:55:22Z</time>
      </trkpt>
      <trkpt lat="51.449217747071" lon="3.555378099451">
        <ele>0</ele>
        <time>2019-06-01T16:55:27Z</time>
      </trkpt>
      <trkpt lat="51.449287903574" lon="3.555524615063">
        <ele>0</ele>
        <time>2019-06-01T16:55:39Z</time>
      </trkpt>
      <trkpt lat="51.44931086998" lon="3.555566943658">
        <ele>0</ele>
        <time>2019-06-01T16:55:44Z</time>
      </trkpt>
      <trkpt lat="51.449326208857" lon="3.555623186207">
        <ele>0</ele>
        <time>2019-06-01T16:55:49Z</time>
      </trkpt>
      <trkpt lat="51.449365687606" lon="3.555679009661">
        <ele>0</ele>
        <time>2019-06-01T16:55:56Z</time>
      </trkpt>
      <trkpt lat="51.449468533519" lon="3.555802642686">
        <ele>0</ele>
        <time>2019-06-01T16:56:13Z</time>
      </trkpt>
      <trkpt lat="51.449513460503" lon="3.555809432025">
        <ele>0</ele>
        <time>2019-06-01T16:56:19Z</time>
      </trkpt>
      <trkpt lat="51.449735497034" lon="3.555992492721">
        <ele>0</ele>
        <time>2019-06-01T16:56:39Z</time>
      </trkpt>
      <trkpt lat="51.449786375167" lon="3.55606382269">
        <ele>0</ele>
        <time>2019-06-01T16:56:46Z</time>
      </trkpt>
      <trkpt lat="51.449833229988" lon="3.556100870688">
        <ele>0</ele>
        <time>2019-06-01T16:56:51Z</time>
      </trkpt>
      <trkpt lat="51.449875726221" lon="3.556151497364">
        <ele>0</ele>
        <time>2019-06-01T16:56:57Z</time>
      </trkpt>
      <trkpt lat="51.449896513333" lon="3.556160046902">
        <ele>0</ele>
        <time>2019-06-01T16:57:02Z</time>
      </trkpt>
      <trkpt lat="51.449886371234" lon="3.55620966775">
        <ele>0</ele>
        <time>2019-06-01T16:57:38Z</time>
      </trkpt>
      <trkpt lat="51.449888718166" lon="3.556221905324">
        <ele>0</ele>
        <time>2019-06-01T16:57:51Z</time>
      </trkpt>
      <trkpt lat="51.449851083435" lon="3.556222492057">
        <ele>0</ele>
        <time>2019-06-01T16:58:03Z</time>
      </trkpt>
      <trkpt lat="51.449826524468" lon="3.556233639984">
        <ele>0</ele>
        <time>2019-06-01T16:58:06Z</time>
      </trkpt>
      <trkpt lat="51.449782184217" lon="3.556264653014">
        <ele>0</ele>
        <time>2019-06-01T16:58:12Z</time>
      </trkpt>
      <trkpt lat="51.449690486231" lon="3.556272783457">
        <ele>0</ele>
        <time>2019-06-01T16:58:25Z</time>
      </trkpt>
      <trkpt lat="51.449627119067" lon="3.556257025485">
        <ele>0</ele>
        <time>2019-06-01T16:58:32Z</time>
      </trkpt>
      <trkpt lat="51.449547658655" lon="3.556251828707">
        <ele>0</ele>
        <time>2019-06-01T16:58:42Z</time>
      </trkpt>
      <trkpt lat="51.449344984313" lon="3.556421478363">
        <ele>0</ele>
        <time>2019-06-01T16:59:08Z</time>
      </trkpt>
      <trkpt lat="51.448915076662" lon="3.556226599188">
        <ele>0</ele>
        <time>2019-06-01T16:59:49Z</time>
      </trkpt>
      <trkpt lat="51.448903761097" lon="3.556226180093">
        <ele>0</ele>
        <time>2019-06-01T16:59:50Z</time>
      </trkpt>
      <trkpt lat="51.448868221841" lon="3.556239591133">
        <ele>0</ele>
        <time>2019-06-01T16:59:55Z</time>
      </trkpt>
      <trkpt lat="51.448835029517" lon="3.556249146499">
        <ele>0</ele>
        <time>2019-06-01T16:59:59Z</time>
      </trkpt>
      <trkpt lat="51.448841315942" lon="3.556329193644">
        <ele>0</ele>
        <time>2019-06-01T17:00:06Z</time>
      </trkpt>
      <trkpt lat="51.448833269318" lon="3.556378898311">
        <ele>0</ele>
        <time>2019-06-01T17:00:11Z</time>
      </trkpt>
      <trkpt lat="51.448819439183" lon="3.556441427285">
        <ele>0</ele>
        <time>2019-06-01T17:00:17Z</time>
      </trkpt>
      <trkpt lat="51.44882052883" lon="3.556489036477">
        <ele>0</ele>
        <time>2019-06-01T17:00:21Z</time>
      </trkpt>
      <trkpt lat="51.448799993175" lon="3.556636222641">
        <ele>0</ele>
        <time>2019-06-01T17:00:34Z</time>
      </trkpt>
      <trkpt lat="51.448753725087" lon="3.556929589141">
        <ele>0</ele>
        <time>2019-06-01T17:00:57Z</time>
      </trkpt>
      <trkpt lat="51.448757496942" lon="3.557004188051">
        <ele>0</ele>
        <time>2019-06-01T17:01:02Z</time>
      </trkpt>
      <trkpt lat="51.448762190806" lon="3.557085660119">
        <ele>0</ele>
        <time>2019-06-01T17:01:08Z</time>
      </trkpt>
      <trkpt lat="51.448753389811" lon="3.557129497456">
        <ele>0</ele>
        <time>2019-06-01T17:01:12Z</time>
      </trkpt>
      <trkpt lat="51.448676192512" lon="3.55729763837">
        <ele>0</ele>
        <time>2019-06-01T17:01:32Z</time>
      </trkpt>
      <trkpt lat="51.44865624359" lon="3.557487153129">
        <ele>0</ele>
        <time>2019-06-01T17:01:45Z</time>
      </trkpt>
      <trkpt lat="51.448625398198" lon="3.557562925505">
        <ele>0</ele>
        <time>2019-06-01T17:01:52Z</time>
      </trkpt>
      <trkpt lat="51.448607544751" lon="3.55764883998">
        <ele>0</ele>
        <time>2019-06-01T17:02:19Z</time>
      </trkpt>
      <trkpt lat="51.44879873589" lon="3.557733329532">
        <ele>0</ele>
        <time>2019-06-01T17:02:47Z</time>
      </trkpt>
      <trkpt lat="51.448807788342" lon="3.557829972839">
        <ele>0</ele>
        <time>2019-06-01T17:02:53Z</time>
      </trkpt>
      <trkpt lat="51.448775015113" lon="3.557900632256">
        <ele>0</ele>
        <time>2019-06-01T17:02:59Z</time>
      </trkpt>
      <trkpt lat="51.448654651029" lon="3.558048237515">
        <ele>0</ele>
        <time>2019-06-01T17:03:14Z</time>
      </trkpt>
      <trkpt lat="51.448600671593" lon="3.558159465328">
        <ele>0</ele>
        <time>2019-06-01T17:03:23Z</time>
      </trkpt>
      <trkpt lat="51.448478714948" lon="3.558373622873">
        <ele>0</ele>
        <time>2019-06-01T17:03:58Z</time>
      </trkpt>
      <trkpt lat="51.448452479601" lon="3.558424501006">
        <ele>0</ele>
        <time>2019-06-01T17:04:03Z</time>
      </trkpt>
      <trkpt lat="51.448410067187" lon="3.558480911193">
        <ele>0</ele>
        <time>2019-06-01T17:04:10Z</time>
      </trkpt>
      <trkpt lat="51.448385927315" lon="3.558513516784">
        <ele>0</ele>
        <time>2019-06-01T17:04:14Z</time>
      </trkpt>
      <trkpt lat="51.448359775787" lon="3.558566155116">
        <ele>0</ele>
        <time>2019-06-01T17:04:19Z</time>
      </trkpt>
      <trkpt lat="51.44827654352" lon="3.558671096504">
        <ele>0</ele>
        <time>2019-06-01T17:04:31Z</time>
      </trkpt>
      <trkpt lat="51.448243267377" lon="3.558703785914">
        <ele>0</ele>
        <time>2019-06-01T17:04:36Z</time>
      </trkpt>
      <trkpt lat="51.448213595451" lon="3.558698672955">
        <ele>0</ele>
        <time>2019-06-01T17:04:43Z</time>
      </trkpt>
      <trkpt lat="51.448265563231" lon="3.558623990226">
        <ele>0</ele>
        <time>2019-06-01T17:04:53Z</time>
      </trkpt>
      <trkpt lat="51.448324739445" lon="3.558519635571">
        <ele>0</ele>
        <time>2019-06-01T17:05:03Z</time>
      </trkpt>
      <trkpt lat="51.448356423027" lon="3.558447802688">
        <ele>0</ele>
        <time>2019-06-01T17:05:09Z</time>
      </trkpt>
      <trkpt lat="51.4484123303" lon="3.558354679779">
        <ele>0</ele>
        <time>2019-06-01T17:05:18Z</time>
      </trkpt>
      <trkpt lat="51.448466393555" lon="3.558292653719">
        <ele>0</ele>
        <time>2019-06-01T17:05:28Z</time>
      </trkpt>
      <trkpt lat="51.448514086566" lon="3.558231884944">
        <ele>0</ele>
        <time>2019-06-01T17:05:35Z</time>
      </trkpt>
      <trkpt lat="51.448553565315" lon="3.558026612213">
        <ele>0</ele>
        <time>2019-06-01T17:05:50Z</time>
      </trkpt>
      <trkpt lat="51.448644341292" lon="3.557530739009">
        <ele>0</ele>
        <time>2019-06-01T17:06:40Z</time>
      </trkpt>
      <trkpt lat="51.44864534712" lon="3.557279952561">
        <ele>0</ele>
        <time>2019-06-01T17:06:56Z</time>
      </trkpt>
      <trkpt lat="51.448631768442" lon="3.557048528302">
        <ele>0</ele>
        <time>2019-06-01T17:07:13Z</time>
      </trkpt>
      <trkpt lat="51.448661524187" lon="3.556919530861">
        <ele>0</ele>
        <time>2019-06-01T17:07:21Z</time>
      </trkpt>
      <trkpt lat="51.448676108693" lon="3.556836466232">
        <ele>0</ele>
        <time>2019-06-01T17:07:39Z</time>
      </trkpt>
      <trkpt lat="51.448701002936" lon="3.556585595965">
        <ele>0</ele>
        <time>2019-06-01T17:07:55Z</time>
      </trkpt>
      <trkpt lat="51.448713994881" lon="3.556440253819">
        <ele>0</ele>
        <time>2019-06-01T17:08:05Z</time>
      </trkpt>
      <trkpt lat="51.4487476063" lon="3.556270101249">
        <ele>0</ele>
        <time>2019-06-01T17:08:18Z</time>
      </trkpt>
      <trkpt lat="51.448796556596" lon="3.556119478506">
        <ele>0</ele>
        <time>2019-06-01T17:08:29Z</time>
      </trkpt>
      <trkpt lat="51.448834526603" lon="3.556088381657">
        <ele>0</ele>
        <time>2019-06-01T17:08:34Z</time>
      </trkpt>
      <trkpt lat="51.448857912104" lon="3.556074970617">
        <ele>0</ele>
        <time>2019-06-01T17:08:37Z</time>
      </trkpt>
      <trkpt lat="51.448926392227" lon="3.55610992314">
        <ele>0</ele>
        <time>2019-06-01T17:08:44Z</time>
      </trkpt>
      <trkpt lat="51.448978192369" lon="3.556109420226">
        <ele>0</ele>
        <time>2019-06-01T17:08:51Z</time>
      </trkpt>
      <trkpt lat="51.449005349725" lon="3.556103636715">
        <ele>0</ele>
        <time>2019-06-01T17:08:54Z</time>
      </trkpt>
      <trkpt lat="51.44906444212" lon="3.556096847376">
        <ele>0</ele>
        <time>2019-06-01T17:09:00Z</time>
      </trkpt>
      <trkpt lat="51.449117918642" lon="3.556095422453">
        <ele>0</ele>
        <time>2019-06-01T17:09:06Z</time>
      </trkpt>
      <trkpt lat="51.449161588341" lon="3.556094165168">
        <ele>0</ele>
        <time>2019-06-01T17:09:10Z</time>
      </trkpt>
      <trkpt lat="51.449214813406" lon="3.556080837947">
        <ele>0</ele>
        <time>2019-06-01T17:09:16Z</time>
      </trkpt>
      <trkpt lat="51.449273319068" lon="3.556088716933">
        <ele>0</ele>
        <time>2019-06-01T17:09:22Z</time>
      </trkpt>
      <trkpt lat="51.449328052875" lon="3.556112940624">
        <ele>0</ele>
        <time>2019-06-01T17:09:28Z</time>
      </trkpt>
      <trkpt lat="51.449445567113" lon="3.55614093617">
        <ele>0</ele>
        <time>2019-06-01T17:09:40Z</time>
      </trkpt>
      <trkpt lat="51.449515053064" lon="3.55614764169">
        <ele>0</ele>
        <time>2019-06-01T17:09:46Z</time>
      </trkpt>
      <trkpt lat="51.449647738541" lon="3.556130626433">
        <ele>0</ele>
        <time>2019-06-01T17:09:59Z</time>
      </trkpt>
      <trkpt lat="51.449735077939" lon="3.55613674522">
        <ele>0</ele>
        <time>2019-06-01T17:10:06Z</time>
      </trkpt>
      <trkpt lat="51.449772964127" lon="3.556146216767">
        <ele>0</ele>
        <time>2019-06-01T17:10:11Z</time>
      </trkpt>
      <trkpt lat="51.449817304378" lon="3.556135823211">
        <ele>0</ele>
        <time>2019-06-01T17:10:16Z</time>
      </trkpt>
      <trkpt lat="51.449836247472" lon="3.556149150432">
        <ele>0</ele>
        <time>2019-06-01T17:10:59Z</time>
      </trkpt>
      <trkpt lat="51.449811939962" lon="3.55615350902">
        <ele>0</ele>
        <time>2019-06-01T17:11:02Z</time>
      </trkpt>
      <trkpt lat="51.449612869837" lon="3.556106821837">
        <ele>0</ele>
        <time>2019-06-01T17:11:23Z</time>
      </trkpt>
      <trkpt lat="51.449463672017" lon="3.555986960667">
        <ele>0</ele>
        <time>2019-06-01T17:11:37Z</time>
      </trkpt>
      <trkpt lat="51.449228056808" lon="3.555787890542">
        <ele>0</ele>
        <time>2019-06-01T17:12:00Z</time>
      </trkpt>
      <trkpt lat="51.449182794548" lon="3.555751596915">
        <ele>0</ele>
        <time>2019-06-01T17:12:04Z</time>
      </trkpt>
      <trkpt lat="51.44909377877" lon="3.555719158962">
        <ele>0</ele>
        <time>2019-06-01T17:12:13Z</time>
      </trkpt>
      <trkpt lat="51.449022197344" lon="3.555677836195">
        <ele>0</ele>
        <time>2019-06-01T17:12:21Z</time>
      </trkpt>
      <trkpt lat="51.448916585404" lon="3.555612122099">
        <ele>0</ele>
        <time>2019-06-01T17:12:39Z</time>
      </trkpt>
      <trkpt lat="51.448878783035" lon="3.555592927548">
        <ele>0</ele>
        <time>2019-06-01T17:12:43Z</time>
      </trkpt>
      <trkpt lat="51.448839891019" lon="3.555430318688">
        <ele>0</ele>
        <time>2019-06-01T17:12:55Z</time>
      </trkpt>
      <trkpt lat="51.448847937643" lon="3.555237451169">
        <ele>0</ele>
        <time>2019-06-01T17:13:55Z</time>
      </trkpt>
      <trkpt lat="51.448864366167" lon="3.555198140058">
        <ele>0</ele>
        <time>2019-06-01T17:13:59Z</time>
      </trkpt>
      <trkpt lat="51.448930918453" lon="3.555057743233">
        <ele>0</ele>
        <time>2019-06-01T17:14:17Z</time>
      </trkpt>
      <trkpt lat="51.44893116991" lon="3.554982222314">
        <ele>0</ele>
        <time>2019-06-01T17:14:23Z</time>
      </trkpt>
      <trkpt lat="51.448937959249" lon="3.554865378628">
        <ele>0</ele>
        <time>2019-06-01T17:14:32Z</time>
      </trkpt>
      <trkpt lat="51.448944078036" lon="3.554839981471">
        <ele>0</ele>
        <time>2019-06-01T17:14:34Z</time>
      </trkpt>
      <trkpt lat="51.448971905944" lon="3.554760269602">
        <ele>0</ele>
        <time>2019-06-01T17:14:40Z</time>
      </trkpt>
      <trkpt lat="51.449015575643" lon="3.554684245769">
        <ele>0</ele>
        <time>2019-06-01T17:14:48Z</time>
      </trkpt>
      <trkpt lat="51.448967463537" lon="3.554345700828">
        <ele>0</ele>
        <time>2019-06-01T17:15:13Z</time>
      </trkpt>
      <trkpt lat="51.448888925134" lon="3.554068259938">
        <ele>0</ele>
        <time>2019-06-01T17:15:34Z</time>
      </trkpt>
      <trkpt lat="51.44889345136" lon="3.554017465624">
        <ele>0</ele>
        <time>2019-06-01T17:15:37Z</time>
      </trkpt>
      <trkpt lat="51.448873921533" lon="3.553964408197">
        <ele>0</ele>
        <time>2019-06-01T17:15:42Z</time>
      </trkpt>
      <trkpt lat="51.448833017861" lon="3.55379735693">
        <ele>0</ele>
        <time>2019-06-01T17:15:58Z</time>
      </trkpt>
      <trkpt lat="51.448858834113" lon="3.553883103767">
        <ele>0</ele>
        <time>2019-06-01T17:16:42Z</time>
      </trkpt>
      <trkpt lat="51.448938629801" lon="3.554163394503">
        <ele>0</ele>
        <time>2019-06-01T17:17:13Z</time>
      </trkpt>
      <trkpt lat="51.448937623973" lon="3.554213015351">
        <ele>0</ele>
        <time>2019-06-01T17:17:17Z</time>
      </trkpt>
      <trkpt lat="51.448913735558" lon="3.554264564036">
        <ele>0</ele>
        <time>2019-06-01T17:17:22Z</time>
      </trkpt>
      <trkpt lat="51.448885153279" lon="3.554361123524">
        <ele>0</ele>
        <time>2019-06-01T17:17:30Z</time>
      </trkpt>
      <trkpt lat="51.448882722528" lon="3.554392807106">
        <ele>0</ele>
        <time>2019-06-01T17:17:32Z</time>
      </trkpt>
      <trkpt lat="51.448906610943" lon="3.55452239128">
        <ele>0</ele>
        <time>2019-06-01T17:17:43Z</time>
      </trkpt>
      <trkpt lat="51.448888589858" lon="3.554598834208">
        <ele>0</ele>
        <time>2019-06-01T17:17:50Z</time>
      </trkpt>
      <trkpt lat="51.448906946219" lon="3.554804106939">
        <ele>0</ele>
        <time>2019-06-01T17:18:21Z</time>
      </trkpt>
      <trkpt lat="51.448933600661" lon="3.554860852402">
        <ele>0</ele>
        <time>2019-06-01T17:18:28Z</time>
      </trkpt>
      <trkpt lat="51.448918848517" lon="3.554962776306">
        <ele>0</ele>
        <time>2019-06-01T17:18:39Z</time>
      </trkpt>
      <trkpt lat="51.448899821604" lon="3.555006529824">
        <ele>0</ele>
        <time>2019-06-01T17:18:43Z</time>
      </trkpt>
      <trkpt lat="51.448917591232" lon="3.555071321911">
        <ele>0</ele>
        <time>2019-06-01T17:18:49Z</time>
      </trkpt>
      <trkpt lat="51.448955812696" lon="3.55516444482">
        <ele>0</ele>
        <time>2019-06-01T17:18:58Z</time>
      </trkpt>
      <trkpt lat="51.44899151959" lon="3.555287742569">
        <ele>0</ele>
        <time>2019-06-01T17:19:08Z</time>
      </trkpt>
      <trkpt lat="51.449076428237" lon="3.555369633732">
        <ele>0</ele>
        <time>2019-06-01T17:19:21Z</time>
      </trkpt>
      <trkpt lat="51.449104926697" lon="3.555402909875">
        <ele>0</ele>
        <time>2019-06-01T17:19:26Z</time>
      </trkpt>
      <trkpt lat="51.449151027147" lon="3.55543182743">
        <ele>0</ele>
        <time>2019-06-01T17:19:33Z</time>
      </trkpt>
      <trkpt lat="51.449222273297" lon="3.555509946738">
        <ele>0</ele>
        <time>2019-06-01T17:19:44Z</time>
      </trkpt>
      <trkpt lat="51.449404579622" lon="3.555879923804">
        <ele>0</ele>
        <time>2019-06-01T17:20:28Z</time>
      </trkpt>
      <trkpt lat="51.44948102255" lon="3.555911020653">
        <ele>0</ele>
        <time>2019-06-01T17:20:40Z</time>
      </trkpt>
      <trkpt lat="51.449505162422" lon="3.55593809419">
        <ele>0</ele>
        <time>2019-06-01T17:20:43Z</time>
      </trkpt>
      <trkpt lat="51.44964530779" lon="3.556003053915">
        <ele>0</ele>
        <time>2019-06-01T17:20:58Z</time>
      </trkpt>
      <trkpt lat="51.449721163985" lon="3.556052423306">
        <ele>0</ele>
        <time>2019-06-01T17:21:09Z</time>
      </trkpt>
      <trkpt lat="51.449775646335" lon="3.556064493242">
        <ele>0</ele>
        <time>2019-06-01T17:21:18Z</time>
      </trkpt>
      <trkpt lat="51.449821411509" lon="3.556133811555">
        <ele>0</ele>
        <time>2019-06-01T17:21:27Z</time>
      </trkpt>
      <trkpt lat="51.449890646003" lon="3.556218720202">
        <ele>0</ele>
        <time>2019-06-01T17:23:45Z</time>
      </trkpt>
      <trkpt lat="51.449766426245" lon="3.556125429655">
        <ele>0</ele>
        <time>2019-06-01T17:47:55Z</time>
      </trkpt>
      <trkpt lat="51.449641871211" lon="3.556079580662">
        <ele>0</ele>
        <time>2019-06-01T17:48:17Z</time>
      </trkpt>
      <trkpt lat="51.449606080498" lon="3.556083603974">
        <ele>0</ele>
        <time>2019-06-01T17:48:29Z</time>
      </trkpt>
      <trkpt lat="51.44957573802" lon="3.556049070546">
        <ele>0</ele>
        <time>2019-06-01T17:48:32Z</time>
      </trkpt>
      <trkpt lat="51.449506671164" lon="3.555971789428">
        <ele>0</ele>
        <time>2019-06-01T17:48:41Z</time>
      </trkpt>
      <trkpt lat="51.449176089028" lon="3.555715470926">
        <ele>0</ele>
        <time>2019-06-01T17:49:15Z</time>
      </trkpt>
      <trkpt lat="51.449107944181" lon="3.555695773461">
        <ele>0</ele>
        <time>2019-06-01T17:49:21Z</time>
      </trkpt>
      <trkpt lat="51.448998895662" lon="3.555603907837">
        <ele>0</ele>
        <time>2019-06-01T17:49:32Z</time>
      </trkpt>
      <trkpt lat="51.448569323287" lon="3.555360665099">
        <ele>0</ele>
        <time>2019-06-01T17:50:09Z</time>
      </trkpt>
      <trkpt lat="51.448521295" lon="3.555360329823">
        <ele>0</ele>
        <time>2019-06-01T17:50:27Z</time>
      </trkpt>
      <trkpt lat="51.448514840937" lon="3.555415147449">
        <ele>0</ele>
        <time>2019-06-01T17:50:51Z</time>
      </trkpt>
      <trkpt lat="51.448521797914" lon="3.555342811652">
        <ele>0</ele>
        <time>2019-06-01T17:50:57Z</time>
      </trkpt>
      <trkpt lat="51.448518445154" lon="3.555284054533">
        <ele>0</ele>
        <time>2019-06-01T17:51:03Z</time>
      </trkpt>
      <trkpt lat="51.448530682728" lon="3.555205013216">
        <ele>0</ele>
        <time>2019-06-01T17:51:10Z</time>
      </trkpt>
      <trkpt lat="51.448519702439" lon="3.555277432832">
        <ele>0</ele>
        <time>2019-06-01T17:51:32Z</time>
      </trkpt>
      <trkpt lat="51.448513164557" lon="3.555299728686">
        <ele>0</ele>
        <time>2019-06-01T17:51:34Z</time>
      </trkpt>
      <trkpt lat="51.448503944467" lon="3.555351445009">
        <ele>0</ele>
        <time>2019-06-01T17:51:38Z</time>
      </trkpt>
      <trkpt lat="51.448530095995" lon="3.555307523853">
        <ele>0</ele>
        <time>2019-06-01T17:52:11Z</time>
      </trkpt>
      <trkpt lat="51.448582063775" lon="3.555325293481">
        <ele>0</ele>
        <time>2019-06-01T17:52:18Z</time>
      </trkpt>
      <trkpt lat="51.448725729541" lon="3.555454793836">
        <ele>0</ele>
        <time>2019-06-01T17:53:50Z</time>
      </trkpt>
      <trkpt lat="51.448845590711" lon="3.555567027477">
        <ele>0</ele>
        <time>2019-06-01T17:54:19Z</time>
      </trkpt>
      <trkpt lat="51.448872915705" lon="3.555597537593">
        <ele>0</ele>
        <time>2019-06-01T17:54:24Z</time>
      </trkpt>
      <trkpt lat="51.448889092772" lon="3.555610529538">
        <ele>0</ele>
        <time>2019-06-01T17:54:27Z</time>
      </trkpt>
      <trkpt lat="51.449003338069" lon="3.555752686562">
        <ele>0</ele>
        <time>2019-06-01T17:54:50Z</time>
      </trkpt>
      <trkpt lat="51.449054551478" lon="3.555779173366">
        <ele>0</ele>
        <time>2019-06-01T17:54:58Z</time>
      </trkpt>
      <trkpt lat="51.449075925323" lon="3.555784286325">
        <ele>0</ele>
        <time>2019-06-01T17:55:02Z</time>
      </trkpt>
      <trkpt lat="51.449313300731" lon="3.555954690352">
        <ele>0</ele>
        <time>2019-06-01T17:56:05Z</time>
      </trkpt>
      <trkpt lat="51.44932763378" lon="3.555964245718">
        <ele>0</ele>
        <time>2019-06-01T17:56:08Z</time>
      </trkpt>
      <trkpt lat="51.449360490828" lon="3.556000874621">
        <ele>0</ele>
        <time>2019-06-01T17:56:13Z</time>
      </trkpt>
      <trkpt lat="51.449376835533" lon="3.556016381136">
        <ele>0</ele>
        <time>2019-06-01T17:56:16Z</time>
      </trkpt>
      <trkpt lat="51.449401059224" lon="3.55603616242">
        <ele>0</ele>
        <time>2019-06-01T17:56:20Z</time>
      </trkpt>
      <trkpt lat="51.449436011747" lon="3.556069438563">
        <ele>0</ele>
        <time>2019-06-01T17:56:27Z</time>
      </trkpt>
      <trkpt lat="51.449459397248" lon="3.556080754128">
        <ele>0</ele>
        <time>2019-06-01T17:56:31Z</time>
      </trkpt>
      <trkpt lat="51.449472389193" lon="3.55608310106">
        <ele>0</ele>
        <time>2019-06-01T17:56:33Z</time>
      </trkpt>
      <trkpt lat="51.449502564033" lon="3.556093243159">
        <ele>0</ele>
        <time>2019-06-01T17:56:38Z</time>
      </trkpt>
      <trkpt lat="51.449515053064" lon="3.556106821837">
        <ele>0</ele>
        <time>2019-06-01T17:56:41Z</time>
      </trkpt>
      <trkpt lat="51.449782519493" lon="3.55616859644">
        <ele>0</ele>
        <time>2019-06-01T17:57:31Z</time>
      </trkpt>
      <trkpt lat="51.449821914423" lon="3.556178822358">
        <ele>0</ele>
        <time>2019-06-01T17:57:40Z</time>
      </trkpt>
      <trkpt lat="51.449874636574" lon="3.556176726883">
        <ele>0</ele>
        <time>2019-06-01T17:57:51Z</time>
      </trkpt>
      <trkpt lat="51.449882180284" lon="3.556191059932">
        <ele>0</ele>
        <time>2019-06-01T17:57:53Z</time>
      </trkpt>
      <trkpt lat="51.450228101297" lon="3.556005317028">
        <ele>0</ele>
        <time>2019-06-01T18:00:41Z</time>
      </trkpt>
      <trkpt lat="51.450386603026" lon="3.555873972655">
        <ele>0</ele>
        <time>2019-06-01T18:02:39Z</time>
      </trkpt>
      <trkpt lat="51.450394817288" lon="3.555903896038">
        <ele>0</ele>
        <time>2019-06-01T18:02:42Z</time>
      </trkpt>
      <trkpt lat="51.450420214445" lon="3.555980338966">
        <ele>0</ele>
        <time>2019-06-01T18:02:51Z</time>
      </trkpt>
      <trkpt lat="51.450430943277" lon="3.55601520767">
        <ele>0</ele>
        <time>2019-06-01T18:02:55Z</time>
      </trkpt>
      <trkpt lat="51.450446701249" lon="3.556079245386">
        <ele>0</ele>
        <time>2019-06-01T18:03:01Z</time>
      </trkpt>
      <trkpt lat="51.450617105276" lon="3.556118472678">
        <ele>0</ele>
        <time>2019-06-01T18:05:49Z</time>
      </trkpt>
      <trkpt lat="51.450609896842" lon="3.55603197147">
        <ele>0</ele>
        <time>2019-06-01T18:05:56Z</time>
      </trkpt>
      <trkpt lat="51.450635377818" lon="3.555795266614">
        <ele>0</ele>
        <time>2019-06-01T18:06:25Z</time>
      </trkpt>
      <trkpt lat="51.450649543229" lon="3.555486142142">
        <ele>0</ele>
        <time>2019-06-01T18:06:57Z</time>
      </trkpt>
      <trkpt lat="51.450651890161" lon="3.5551074479">
        <ele>0</ele>
        <time>2019-06-01T18:07:55Z</time>
      </trkpt>
      <trkpt lat="51.450640909872" lon="3.555066711866">
        <ele>0</ele>
        <time>2019-06-01T18:07:58Z</time>
      </trkpt>
      <trkpt lat="51.450642250976" lon="3.55502279071">
        <ele>0</ele>
        <time>2019-06-01T18:08:01Z</time>
      </trkpt>
      <trkpt lat="51.450747360002" lon="3.554831180476">
        <ele>0</ele>
        <time>2019-06-01T18:08:25Z</time>
      </trkpt>
      <trkpt lat="51.450833525934" lon="3.554668403978">
        <ele>0</ele>
        <time>2019-06-01T18:08:44Z</time>
      </trkpt>
      <trkpt lat="51.45100736654" lon="3.554643342097">
        <ele>0</ele>
        <time>2019-06-01T18:09:08Z</time>
      </trkpt>
      <trkpt lat="51.451084396201" lon="3.554642503907">
        <ele>0</ele>
        <time>2019-06-01T18:09:19Z</time>
      </trkpt>
      <trkpt lat="51.451145751709" lon="3.554617693483">
        <ele>0</ele>
        <time>2019-06-01T18:09:29Z</time>
      </trkpt>
      <trkpt lat="51.451180955689" lon="3.55460118114">
        <ele>0</ele>
        <time>2019-06-01T18:09:35Z</time>
      </trkpt>
      <trkpt lat="51.45121020852" lon="3.554584668797">
        <ele>0</ele>
        <time>2019-06-01T18:09:39Z</time>
      </trkpt>
      <trkpt lat="51.451246166871" lon="3.554536891967">
        <ele>0</ele>
        <time>2019-06-01T18:09:46Z</time>
      </trkpt>
      <trkpt lat="51.45126301449" lon="3.554527923334">
        <ele>0</ele>
        <time>2019-06-01T18:09:48Z</time>
      </trkpt>
      <trkpt lat="51.451292602597" lon="3.554484253635">
        <ele>0</ele>
        <time>2019-06-01T18:09:53Z</time>
      </trkpt>
      <trkpt lat="51.451355634485" lon="3.554393980572">
        <ele>0</ele>
        <time>2019-06-01T18:10:06Z</time>
      </trkpt>
      <trkpt lat="51.451429395205" lon="3.554375288935">
        <ele>0</ele>
        <time>2019-06-01T18:10:14Z</time>
      </trkpt>
      <trkpt lat="51.451598961042" lon="3.554334301444">
        <ele>0</ele>
        <time>2019-06-01T18:10:36Z</time>
      </trkpt>
      <trkpt lat="51.45173743003" lon="3.554453324424">
        <ele>0</ele>
        <time>2019-06-01T18:12:20Z</time>
      </trkpt>
      <trkpt lat="51.451800964832" lon="3.554535299406">
        <ele>0</ele>
        <time>2019-06-01T18:13:52Z</time>
      </trkpt>
      <trkpt lat="51.451743884093" lon="3.554350478511">
        <ele>0</ele>
        <time>2019-06-01T18:14:07Z</time>
      </trkpt>
      <trkpt lat="51.451768107784" lon="3.554287614261">
        <ele>0</ele>
        <time>2019-06-01T18:14:44Z</time>
      </trkpt>
      <trkpt lat="51.451778920435" lon="3.554228102771">
        <ele>0</ele>
        <time>2019-06-01T18:15:00Z</time>
      </trkpt>
      <trkpt lat="51.451712787244" lon="3.554326590096">
        <ele>0</ele>
        <time>2019-06-01T18:15:32Z</time>
      </trkpt>
      <trkpt lat="51.451784117213" lon="3.554221145794">
        <ele>0</ele>
        <time>2019-06-01T18:16:07Z</time>
      </trkpt>
      <trkpt lat="51.45172737175" lon="3.554333379435">
        <ele>0</ele>
        <time>2019-06-01T18:16:25Z</time>
      </trkpt>
      <trkpt lat="51.451727287931" lon="3.55437989898">
        <ele>0</ele>
        <time>2019-06-01T18:17:55Z</time>
      </trkpt>
    </trkseg>
  </trk>
</gpx>